createdAt,value
2022-12-23T00:01:59.034Z,29.98
2022-12-23T00:05:21.272Z,28.65
2022-12-23T00:08:44.354Z,29.00
2022-12-23T00:12:25.180Z,27.27
2022-12-23T00:15:47.143Z,24.85
2022-12-23T00:19:09.087Z,25.25
2022-12-23T00:22:50.003Z,24.77
2022-12-23T00:26:18.831Z,23.08
2022-12-23T00:29:40.822Z,22.40
2022-12-23T00:33:02.828Z,22.27
2022-12-23T00:36:28.026Z,22.65
2022-12-23T00:40:09.097Z,25.75
2022-12-23T00:43:31.034Z,25.17
2022-12-23T00:46:53.261Z,26.02
2022-12-23T00:50:15.278Z,22.90
2022-12-23T00:53:37.310Z,24.30
2022-12-23T00:57:00.511Z,23.05
2022-12-23T01:00:42.685Z,25.92
2022-12-23T01:04:23.343Z,23.92
2022-12-23T01:07:45.289Z,26.63
2022-12-23T01:11:10.216Z,26.90
2022-12-23T01:14:32.451Z,23.88
2022-12-23T01:17:54.483Z,25.27
2022-12-23T01:21:16.442Z,25.75
2022-12-23T01:24:38.571Z,26.48
2022-12-23T01:28:00.566Z,25.15
2022-12-23T01:31:24.445Z,28.60
2022-12-23T01:34:46.536Z,27.63
2022-12-23T01:38:08.486Z,26.92
2022-12-23T01:41:51.319Z,26.73
2022-12-23T01:45:19.239Z,27.13
2022-12-23T01:48:44.173Z,24.88
2022-12-23T01:52:06.236Z,25.88
2022-12-23T01:55:31.172Z,27.45
2022-12-23T01:59:00.196Z,24.27
2022-12-23T02:02:41.530Z,26.42
2022-12-23T02:13:16.358Z,24.02
2022-12-23T02:16:50.572Z,25.48
2022-12-23T02:20:18.560Z,26.17
2022-12-23T02:23:46.498Z,27.73
2022-12-23T02:27:23.284Z,26.98
2022-12-23T02:31:19.096Z,27.63
2022-12-23T02:34:48.423Z,25.90
2022-12-23T02:38:35.618Z,26.53
2022-12-23T02:42:06.205Z,24.33
2022-12-23T02:45:49.814Z,26.92
2022-12-23T02:49:20.621Z,28.50
2022-12-23T02:52:45.836Z,25.85
2022-12-23T02:56:10.355Z,26.08
2022-12-23T02:59:41.241Z,27.02
2022-12-23T03:03:03.574Z,27.17
2022-12-23T03:06:30.505Z,26.88
2022-12-23T03:10:11.497Z,26.52
2022-12-23T03:13:54.850Z,28.13
2022-12-23T03:17:28.923Z,26.70
2022-12-23T03:21:38.881Z,30.30
2022-12-23T03:25:38.234Z,29.48
2022-12-23T03:29:15.656Z,29.83
2022-12-23T03:32:47.057Z,29.33
2022-12-23T03:36:25.268Z,29.25
2022-12-23T03:39:52.891Z,28.05
2022-12-23T03:43:43.480Z,28.90
2022-12-23T03:47:18.304Z,29.65
2022-12-23T03:50:42.934Z,29.88
2022-12-23T03:54:10.150Z,27.85
2022-12-23T03:57:58.373Z,20.70
2022-12-23T04:01:23.236Z,19.55
2022-12-23T04:04:51.441Z,18.08
2022-12-23T04:08:24.379Z,17.58
2022-12-23T04:11:46.555Z,17.85
2022-12-23T04:15:12.849Z,16.98
2022-12-23T04:18:35.577Z,19.30
2022-12-23T04:21:57.971Z,18.48
2022-12-23T04:25:20.070Z,18.10
2022-12-23T04:28:42.039Z,16.55
2022-12-23T04:32:04.260Z,15.95
2022-12-23T04:35:26.280Z,16.80
2022-12-23T04:38:48.218Z,16.05
2022-12-23T04:42:10.398Z,14.88
2022-12-23T04:45:33.288Z,13.25
2022-12-23T04:48:55.276Z,13.70
2022-12-23T04:52:17.256Z,13.50
2022-12-23T04:55:39.259Z,13.82
2022-12-23T04:59:02.407Z,12.88
2022-12-23T05:02:24.445Z,14.70
2022-12-23T05:05:46.517Z,13.18
2022-12-23T05:09:08.963Z,13.40
2022-12-23T05:12:31.586Z,14.75
2022-12-23T05:15:55.067Z,13.95
2022-12-23T05:19:17.220Z,15.90
2022-12-23T05:22:39.194Z,16.40
2022-12-23T05:26:01.324Z,15.70
2022-12-23T05:29:23.237Z,16.67
2022-12-23T05:32:45.314Z,14.25
2022-12-23T05:36:07.553Z,13.88
2022-12-23T05:39:29.593Z,13.80
2022-12-23T05:42:51.615Z,14.25
2022-12-23T05:46:13.761Z,15.55
2022-12-23T05:49:35.755Z,16.67
2022-12-23T05:52:57.878Z,17.25
2022-12-23T05:56:19.882Z,17.90
2022-12-23T05:59:41.857Z,17.50
2022-12-23T06:03:03.980Z,19.45
2022-12-23T06:06:26.219Z,19.00
2022-12-23T06:09:48.185Z,18.35
2022-12-23T06:13:10.386Z,19.00
2022-12-23T06:16:32.424Z,21.05
2022-12-23T06:19:54.418Z,18.98
2022-12-23T06:23:16.480Z,21.23
2022-12-23T06:26:38.412Z,23.35
2022-12-23T06:30:00.398Z,26.00
2022-12-23T06:33:23.089Z,27.65
2022-12-23T06:36:45.068Z,24.80
2022-12-23T06:40:07.543Z,26.35
2022-12-23T06:43:29.545Z,27.80
2022-12-23T06:46:51.632Z,24.50
2022-12-23T06:50:13.647Z,23.92
2022-12-23T06:53:35.644Z,23.05
2022-12-23T06:56:57.632Z,21.20
2022-12-23T07:00:20.238Z,22.13
2022-12-23T07:03:42.318Z,21.35
2022-12-23T07:07:04.359Z,21.45
2022-12-23T07:10:26.337Z,19.88
2022-12-23T07:13:48.799Z,20.25
2022-12-23T07:17:10.845Z,18.50
2022-12-23T07:20:33.038Z,17.45
2022-12-23T07:23:55.073Z,17.38
2022-12-23T07:27:17.051Z,17.70
2022-12-23T07:30:38.985Z,18.20
2022-12-23T07:34:00.890Z,18.83
2022-12-23T07:37:22.825Z,19.25
2022-12-23T07:40:49.100Z,19.80
2022-12-23T07:44:11.015Z,22.95
2022-12-23T07:47:32.977Z,24.83
2022-12-23T07:51:03.692Z,19.05
2022-12-23T07:54:25.665Z,18.30
2022-12-23T07:57:51.688Z,20.80
2022-12-23T08:01:13.774Z,26.63
2022-12-23T08:04:38.392Z,20.23
2022-12-23T08:08:05.022Z,17.73
2022-12-23T08:11:26.977Z,18.02
2022-12-23T08:14:50.458Z,16.55
2022-12-23T08:18:12.369Z,15.88
2022-12-23T08:21:34.753Z,18.20
2022-12-23T08:24:56.695Z,17.98
2022-12-23T08:28:18.639Z,18.50
2022-12-23T08:31:40.633Z,17.55
2022-12-23T08:35:02.619Z,19.83
2022-12-23T08:38:24.812Z,18.25
2022-12-23T08:41:48.318Z,17.75
2022-12-23T08:45:10.707Z,18.80
2022-12-23T08:48:34.311Z,17.88
2022-12-23T08:51:56.320Z,17.17
2022-12-23T08:55:18.404Z,19.92
2022-12-23T08:58:45.561Z,18.35
2022-12-23T09:02:10.456Z,19.17
2022-12-23T09:05:32.793Z,19.55
2022-12-23T09:08:55.587Z,18.48
2022-12-23T09:12:17.539Z,19.33
2022-12-23T09:15:43.577Z,20.42
2022-12-23T09:19:05.752Z,20.65
2022-12-23T09:22:27.731Z,20.20
2022-12-23T09:25:49.684Z,20.80
2022-12-23T09:29:11.616Z,19.88
2022-12-23T09:32:33.585Z,20.90
2022-12-23T09:36:00.345Z,20.90
2022-12-23T09:39:22.518Z,19.17
2022-12-23T09:43:18.544Z,19.45
2022-12-23T09:46:51.850Z,19.40
2022-12-23T09:50:32.052Z,20.42
2022-12-23T09:53:59.963Z,21.95
2022-12-23T09:57:58.699Z,22.40
2022-12-23T10:01:49.015Z,21.83
2022-12-23T10:05:24.598Z,21.83
2022-12-23T10:08:50.391Z,22.40
2022-12-23T10:12:39.382Z,21.48
2022-12-23T10:19:43.227Z,21.73
2022-12-23T10:23:12.818Z,21.60
2022-12-23T10:26:47.197Z,22.27
2022-12-23T10:30:42.552Z,21.90
2022-12-23T10:34:22.393Z,22.73
2022-12-23T10:37:53.390Z,22.80
2022-12-23T10:41:27.622Z,22.70
2022-12-23T10:44:49.510Z,22.00
2022-12-23T10:48:50.720Z,21.15
2022-12-23T10:52:24.118Z,21.30
2022-12-23T10:55:46.394Z,21.15
2022-12-23T10:59:15.938Z,21.15
2022-12-23T11:03:07.059Z,15.55
2022-12-23T11:10:13.174Z,12.90
2022-12-23T11:13:43.878Z,13.30
2022-12-23T11:17:22.250Z,12.25
2022-12-23T11:21:00.894Z,14.82
2022-12-23T11:24:24.061Z,19.00
2022-12-23T11:27:46.886Z,15.75
2022-12-23T11:31:14.658Z,15.30
2022-12-23T11:34:38.277Z,15.27
2022-12-23T11:38:02.019Z,14.27
2022-12-23T11:41:28.773Z,14.20
2022-12-23T11:44:54.060Z,14.52
2022-12-23T11:48:30.346Z,15.88
2022-12-23T11:52:06.235Z,14.68
2022-12-23T11:55:32.929Z,16.48
2022-12-23T11:59:02.965Z,14.68
2022-12-23T12:02:34.551Z,14.75
2022-12-23T12:06:00.961Z,15.02
2022-12-23T12:09:24.246Z,15.32
2022-12-23T12:12:52.771Z,15.20
2022-12-23T12:16:34.485Z,15.45
2022-12-23T12:20:05.865Z,14.27
2022-12-23T12:24:08.405Z,16.08
2022-12-23T12:27:38.406Z,15.80
2022-12-23T12:31:13.314Z,16.30
2022-12-23T12:34:51.591Z,16.25
2022-12-23T12:38:27.823Z,17.10
2022-12-23T12:42:11.672Z,20.13
2022-12-23T12:45:42.357Z,18.27
2022-12-23T12:49:22.508Z,18.08
2022-12-23T12:52:44.957Z,17.33
2022-12-23T12:56:15.837Z,19.60
2022-12-23T12:59:40.873Z,18.23
2022-12-23T13:03:40.758Z,18.83
2022-12-23T13:07:32.099Z,17.73
2022-12-23T13:11:09.823Z,17.27
2022-12-23T13:14:43.868Z,18.55
2022-12-23T13:18:05.825Z,17.02
2022-12-23T13:22:01.570Z,17.33
2022-12-23T13:25:25.679Z,17.10
2022-12-23T13:28:59.695Z,19.08
2022-12-23T13:32:36.715Z,17.70
2022-12-23T13:36:24.079Z,18.40
2022-12-23T13:40:03.366Z,17.95
2022-12-23T13:43:28.950Z,17.02
2022-12-23T13:47:14.848Z,17.40
2022-12-23T13:50:50.645Z,17.98
2022-12-23T13:54:20.733Z,17.17
2022-12-23T13:58:07.525Z,17.23
2022-12-23T14:01:44.817Z,18.25
2022-12-23T14:05:26.568Z,25.58
2022-12-23T14:08:49.602Z,18.52
2022-12-23T14:12:27.947Z,17.95
2022-12-23T14:16:02.216Z,17.65
2022-12-23T14:19:48.792Z,18.27
2022-12-23T14:23:19.723Z,19.20
2022-12-23T14:27:02.413Z,17.95
2022-12-23T14:30:36.139Z,17.45
2022-12-23T14:34:23.156Z,17.75
2022-12-23T14:38:05.053Z,19.40
2022-12-23T14:41:39.233Z,21.13
2022-12-23T14:45:28.734Z,25.15
2022-12-23T14:48:59.594Z,24.92
2022-12-23T14:52:40.747Z,26.35
2022-12-23T14:56:15.056Z,26.92
2022-12-23T15:00:12.915Z,26.95
2022-12-23T15:03:42.104Z,28.67
2022-12-23T15:07:07.271Z,28.75
2022-12-23T15:10:37.999Z,28.60
2022-12-23T15:14:08.939Z,27.60
2022-12-23T15:17:38.198Z,30.25
2022-12-23T15:21:09.793Z,30.33
2022-12-23T15:24:31.809Z,29.48
2022-12-23T15:28:01.576Z,31.95
2022-12-23T15:31:43.311Z,30.95
2022-12-23T15:35:07.381Z,32.25
2022-12-23T15:38:31.803Z,34.75
2022-12-23T15:41:53.820Z,32.95
2022-12-23T15:45:37.760Z,36.55
2022-12-23T15:48:59.849Z,36.15
2022-12-23T15:52:22.480Z,38.40
2022-12-23T15:55:45.214Z,36.85
2022-12-23T15:59:21.128Z,41.40
2022-12-23T16:03:01.507Z,38.72
2022-12-23T16:06:29.792Z,42.55
2022-12-23T16:09:54.852Z,44.25
2022-12-23T16:13:20.311Z,40.00
2022-12-23T16:16:43.488Z,39.63
2022-12-23T16:20:26.428Z,41.58
2022-12-23T16:23:53.012Z,41.65
2022-12-23T16:27:19.269Z,39.80
2022-12-23T16:30:42.807Z,41.78
2022-12-23T16:34:07.869Z,41.65
2022-12-23T16:37:29.940Z,43.15
2022-12-23T16:40:56.332Z,41.20
2022-12-23T16:44:18.414Z,43.63
2022-12-23T16:47:42.486Z,43.83
2022-12-23T16:51:13.920Z,40.80
2022-12-23T16:54:35.983Z,39.47
2022-12-23T16:57:58.003Z,43.75
2022-12-23T17:01:24.833Z,39.17
2022-12-23T17:04:46.837Z,44.50
2022-12-23T17:08:10.032Z,40.60
2022-12-23T17:11:42.435Z,42.50
2022-12-23T17:15:05.694Z,45.50
2022-12-23T17:18:27.735Z,42.50
2022-12-23T17:21:55.517Z,42.10
2022-12-23T17:25:26.220Z,52.92
2022-12-23T17:28:48.717Z,49.30
2022-12-23T17:32:13.281Z,49.35
2022-12-23T17:35:35.317Z,43.28
2022-12-23T17:38:57.433Z,45.75
2022-12-23T17:42:25.779Z,45.95
2022-12-23T17:45:48.221Z,44.33
2022-12-23T17:49:11.178Z,47.60
2022-12-23T17:52:33.136Z,44.75
2022-12-23T17:55:55.090Z,43.88
2022-12-23T17:59:17.177Z,44.47
2022-12-23T18:02:39.681Z,43.60
2022-12-23T18:06:02.495Z,45.00
2022-12-23T18:09:24.607Z,43.65
2022-12-23T18:12:50.084Z,60.65
2022-12-23T18:16:13.014Z,88.57
2022-12-23T18:19:35.018Z,52.95
2022-12-23T18:22:59.260Z,44.28
2022-12-23T18:26:21.297Z,41.90
2022-12-23T18:29:43.992Z,44.28
2022-12-23T18:33:08.829Z,39.38
2022-12-23T18:36:35.602Z,41.20
2022-12-23T18:39:57.781Z,40.88
2022-12-23T18:43:22.379Z,42.85
2022-12-23T18:46:44.469Z,43.13
2022-12-23T18:50:06.986Z,42.35
2022-12-23T18:53:29.095Z,41.22
2022-12-23T18:56:51.126Z,42.20
2022-12-23T19:00:19.461Z,41.28
2022-12-23T19:03:41.764Z,42.63
2022-12-23T19:07:03.745Z,42.38
2022-12-23T19:10:29.123Z,40.08
2022-12-23T19:13:51.120Z,40.15
2022-12-23T19:17:13.085Z,41.40
2022-12-23T19:20:35.066Z,41.72
2022-12-23T19:23:58.439Z,41.45
2022-12-23T19:27:20.359Z,42.80
2022-12-23T19:30:42.578Z,40.40
2022-12-23T19:34:08.123Z,40.55
2022-12-23T19:37:33.719Z,85.93
2022-12-23T19:40:58.853Z,43.58
2022-12-23T19:44:20.948Z,40.22
2022-12-23T19:47:43.023Z,38.47
2022-12-23T19:51:13.554Z,40.47
2022-12-23T19:54:35.560Z,36.53
2022-12-23T19:57:57.544Z,37.50
2022-12-23T20:01:22.505Z,38.97
2022-12-23T20:04:44.804Z,37.17
2022-12-23T20:08:09.994Z,36.85
2022-12-23T20:11:58.534Z,36.40
2022-12-23T20:15:20.609Z,38.58
2022-12-23T20:18:42.775Z,37.53
2022-12-23T20:22:04.742Z,40.88
2022-12-23T20:25:26.846Z,42.22
2022-12-23T20:28:49.357Z,38.80
2022-12-23T20:32:11.354Z,37.40
2022-12-23T20:35:33.404Z,38.60
2022-12-23T20:38:56.385Z,43.55
2022-12-23T20:42:18.361Z,49.05
2022-12-23T20:45:42.986Z,40.83
2022-12-23T20:49:05.120Z,39.38
2022-12-23T20:52:29.982Z,37.85
2022-12-23T20:55:52.248Z,35.28
2022-12-23T20:59:14.313Z,35.78
2022-12-23T21:02:36.310Z,35.45
2022-12-23T21:05:58.554Z,39.10
2022-12-23T21:09:20.531Z,45.08
2022-12-23T21:12:42.549Z,41.03
2022-12-23T21:16:09.807Z,35.67
2022-12-23T21:19:31.827Z,37.45
2022-12-23T21:22:53.794Z,34.05
2022-12-23T21:26:18.112Z,38.00
2022-12-23T21:29:40.055Z,35.50
2022-12-23T21:33:03.539Z,33.13
2022-12-23T21:36:31.180Z,33.33
2022-12-23T21:39:53.260Z,32.55
2022-12-23T21:43:15.197Z,32.85
2022-12-23T21:46:37.344Z,33.00
2022-12-23T21:49:59.566Z,32.97
2022-12-23T21:53:21.725Z,32.83
2022-12-23T21:56:43.760Z,35.17
2022-12-23T22:00:06.555Z,33.72
2022-12-23T22:03:28.694Z,34.65
2022-12-23T22:06:50.899Z,32.47
2022-12-23T22:10:12.948Z,32.33
2022-12-23T22:13:35.024Z,33.55
2022-12-23T22:16:57.192Z,32.38
2022-12-23T22:20:19.679Z,32.05
2022-12-23T22:23:42.648Z,29.65
2022-12-23T22:27:04.647Z,29.45
2022-12-23T22:30:27.045Z,27.33
2022-12-23T22:33:49.084Z,28.40
2022-12-23T22:37:11.231Z,29.02
2022-12-23T22:40:33.431Z,28.08
2022-12-23T22:43:56.216Z,27.67
2022-12-23T22:47:18.705Z,27.50
2022-12-23T22:50:40.919Z,28.80
2022-12-23T22:54:04.243Z,31.00
2022-12-23T22:57:26.245Z,28.80
2022-12-23T23:00:48.268Z,29.80
2022-12-23T23:04:10.663Z,33.28
2022-12-23T23:07:32.709Z,33.90
2022-12-23T23:10:57.276Z,32.70
2022-12-23T23:14:19.942Z,31.60
2022-12-23T23:17:41.900Z,32.42
2022-12-23T23:21:03.941Z,31.60
2022-12-23T23:24:31.069Z,30.60
2022-12-23T23:27:53.610Z,30.20
2022-12-23T23:34:57.634Z,30.02
2022-12-23T23:38:19.564Z,31.00
2022-12-23T23:41:42.204Z,32.72
2022-12-23T23:45:04.619Z,31.27
2022-12-23T23:48:26.590Z,31.52
2022-12-23T23:51:49.362Z,30.00
2022-12-23T23:55:11.486Z,32.10
2022-12-23T23:58:34.550Z,32.90
